Time;durP1;ratioP1;P1;durP2;ratioP2;P2;SDS_P1;SDS_P2;PMS_P1;PMS_P2;Temp;Humidity;BMP_temperature;BMP_pressure;BME280_temperature;BME280_humidity;BME280_pressure;Samples;Min_cycle;Max_cycle;Signal;HPM_P1;HPM_P2
2021/05/14 00:01:24;;;;;;;15.07;10.60;;;12.90;92.30;;;;;;5075712;28;20040;-78
2021/05/14 00:03:49;;;;;;;14.48;10.95;;;12.90;92.30;;;;;;5075447;28;20033;-78
2021/05/14 00:06:15;;;;;;;13.30;10.52;;;12.90;92.30;;;;;;5076882;28;20054;-78
2021/05/14 00:08:41;;;;;;;16.48;12.82;;;12.90;92.30;;;;;;5075543;28;20115;-78
2021/05/14 00:11:07;;;;;;;17.30;13.38;;;12.90;92.50;;;;;;5075605;28;20043;-78
2021/05/14 00:13:32;;;;;;;17.30;13.48;;;12.80;92.50;;;;;;5076682;28;20035;-78
2021/05/14 00:15:58;;;;;;;20.10;13.63;;;12.80;92.80;;;;;;5075351;28;20060;-78
2021/05/14 00:18:24;;;;;;;19.40;15.05;;;12.80;92.50;;;;;;5075268;28;20085;-78
2021/05/14 00:20:50;;;;;;;18.17;13.95;;;12.80;92.60;;;;;;5076483;28;20029;-78
2021/05/14 00:23:16;;;;;;;19.15;13.57;;;12.80;92.60;;;;;;5075558;28;20043;-78
2021/05/14 00:25:43;;;;;;;19.88;14.65;;;12.80;92.80;;;;;;5075062;28;20025;-74
2021/05/14 00:28:09;;;;;;;19.35;15.00;;;12.80;92.50;;;;;;5076721;28;20032;-73
2021/05/14 00:30:35;;;;;;;20.27;14.85;;;12.80;92.50;;;;;;5075193;28;20036;-74
2021/05/14 00:33:01;;;;;;;20.70;15.18;;;12.70;92.50;;;;;;5076744;28;20115;-73
2021/05/14 00:35:26;;;;;;;18.48;14.98;;;12.70;92.50;;;;;;5074875;28;20365;-73
2021/05/14 00:37:52;;;;;;;21.73;16.10;;;12.70;92.60;;;;;;5076057;28;20029;-74
2021/05/14 00:40:17;;;;;;;21.25;15.20;;;12.70;92.60;;;;;;5076236;28;20078;-73
2021/05/14 00:42:43;;;;;;;23.67;17.23;;;12.70;92.70;;;;;;5074738;28;20039;-74
2021/05/14 00:45:09;;;;;;;20.60;15.18;;;12.70;92.70;;;;;;5075370;28;20453;-73
2021/05/14 00:47:35;;;;;;;19.98;15.52;;;12.60;92.70;;;;;;5075682;28;20048;-74
2021/05/14 00:50:01;;;;;;;21.08;15.73;;;12.60;92.70;;;;;;5057881;28;20025;-73
2021/05/14 00:52:28;;;;;;;19.33;15.55;;;12.60;92.90;;;;;;5075854;28;20033;-74
2021/05/14 00:54:54;;;;;;;24.38;18.30;;;12.60;92.90;;;;;;5074554;28;20111;-74
2021/05/14 00:57:20;;;;;;;23.85;18.35;;;12.60;93.00;;;;;;5074675;28;20025;-73
2021/05/14 00:59:47;;;;;;;22.37;16.93;;;12.60;93.00;;;;;;5075838;28;20483;-73
2021/05/14 01:02:14;;;;;;;20.77;17.48;;;12.50;93.00;;;;;;5068573;28;20033;-73
2021/05/14 01:04:42;;;;;;;23.17;18.05;;;12.50;93.00;;;;;;5050824;28;20123;-74
2021/05/14 01:07:08;;;;;;;26.05;18.73;;;12.40;93.00;;;;;;5073852;28;20035;-73
2021/05/14 01:09:34;;;;;;;27.17;18.97;;;12.40;93.40;;;;;;5074079;28;20020;-74
2021/05/14 01:12:00;;;;;;;25.77;19.88;;;12.40;93.20;;;;;;5074174;28;20107;-74
2021/05/14 01:14:26;;;;;;;25.27;19.98;;;12.40;93.20;;;;;;5057468;28;20580;-73
2021/05/14 01:16:52;;;;;;;25.38;19.30;;;12.40;93.10;;;;;;5075307;28;20104;-73
2021/05/14 01:19:18;;;;;;;27.43;21.10;;;12.40;93.20;;;;;;5073852;28;20530;-73
2021/05/14 01:21:43;;;;;;;28.07;21.27;;;12.40;93.30;;;;;;5074120;28;20395;-73
2021/05/14 01:24:09;;;;;;;30.33;22.90;;;12.40;93.30;;;;;;5075033;28;20549;-73
2021/05/14 01:26:35;;;;;;;25.73;20.05;;;12.40;93.20;;;;;;5073802;28;20025;-74
2021/05/14 01:29:03;;;;;;;24.63;19.00;;;12.40;93.20;;;;;;5057141;28;20030;-78
2021/05/14 01:31:29;;;;;;;26.25;20.55;;;12.40;93.20;;;;;;5073681;28;20059;-79
2021/05/14 01:33:55;;;;;;;26.85;20.92;;;12.40;93.20;;;;;;5074124;28;20060;-78
2021/05/14 01:36:21;;;;;;;28.75;21.30;;;12.30;93.30;;;;;;5056998;28;20059;-79
2021/05/14 01:38:46;;;;;;;31.63;23.30;;;12.30;93.30;;;;;;5056920;28;20476;-79
2021/05/14 01:41:12;;;;;;;31.58;22.70;;;12.30;93.30;;;;;;5057057;28;20165;-78
2021/05/14 01:43:38;;;;;;;29.08;22.38;;;12.30;93.30;;;;;;5073419;28;20033;-78
2021/05/14 01:46:05;;;;;;;28.85;21.52;;;12.20;93.30;;;;;;5073420;28;20028;-79
2021/05/14 01:48:31;;;;;;;31.42;21.15;;;12.20;93.40;;;;;;5073388;28;20025;-78
2021/05/14 01:51:14;;;;;;;29.70;22.40;;;12.20;93.40;;;;;;5074560;28;20032;-78
2021/05/14 01:53:39;;;;;;;31.88;22.15;;;12.20;93.40;;;;;;5074523;28;20468;-78
2021/05/14 01:56:05;;;;;;;29.90;22.65;;;12.20;93.40;;;;;;5073325;28;20040;-78
2021/05/14 01:58:31;;;;;;;32.30;24.00;;;12.20;93.40;;;;;;5074482;28;20025;-78
2021/05/14 02:00:56;;;;;;;34.40;24.33;;;12.10;93.40;;;;;;5056436;28;20427;-78
2021/05/14 02:03:22;;;;;;;32.00;23.37;;;12.20;93.50;;;;;;5073095;28;20102;-74
2021/05/14 02:05:48;;;;;;;30.83;22.52;;;12.20;93.50;;;;;;5073842;28;20376;-74
2021/05/14 02:08:13;;;;;;;34.10;25.73;;;12.10;93.40;;;;;;5074059;28;20024;-74
2021/05/14 02:10:39;;;;;;;31.80;24.77;;;12.20;93.60;;;;;;5073062;28;20028;-74
2021/05/14 02:13:05;;;;;;;30.85;24.38;;;12.10;93.50;;;;;;5073012;28;20032;-74
2021/05/14 02:15:32;;;;;;;32.73;24.23;;;12.10;93.50;;;;;;5074143;28;20035;-73
2021/05/14 02:17:58;;;;;;;31.58;24.80;;;12.10;93.50;;;;;;5072920;28;20049;-74
2021/05/14 02:20:23;;;;;;;30.70;24.00;;;12.10;93.60;;;;;;5056271;28;20527;-74
2021/05/14 02:22:49;;;;;;;31.60;23.60;;;12.00;93.60;;;;;;5072741;28;20024;-74
2021/05/14 02:25:14;;;;;;;32.07;24.53;;;12.00;93.60;;;;;;5072745;28;20403;-74
2021/05/14 02:27:40;;;;;;;30.67;22.67;;;12.00;93.70;;;;;;5072624;28;20057;-74
2021/05/14 02:30:10;;;;;;;30.63;22.07;;;11.90;93.70;;;;;;5039628;28;20476;-73
2021/05/14 02:32:35;;;;;;;30.33;22.67;;;12.00;93.70;;;;;;5072566;28;20121;-74
2021/05/14 02:35:02;;;;;;;30.02;21.23;;;12.00;93.70;;;;;;5072681;28;20493;-74
2021/05/14 02:37:27;;;;;;;34.70;23.13;;;12.00;94.00;;;;;;5072439;28;20507;-74
2021/05/14 02:39:53;;;;;;;32.33;23.77;;;12.00;93.70;;;;;;5073850;28;20032;-74
2021/05/14 02:42:19;;;;;;;29.92;22.98;;;12.10;93.80;;;;;;5055575;28;20050;-74
2021/05/14 02:44:46;;;;;;;33.13;24.40;;;12.00;93.70;;;;;;5072390;28;20068;-74
2021/05/14 02:47:12;;;;;;;33.70;22.67;;;12.00;93.70;;;;;;5073344;28;20074;-74
2021/05/14 02:49:38;;;;;;;33.63;22.80;;;12.10;93.80;;;;;;5072369;28;20029;-74
2021/05/14 02:52:04;;;;;;;36.38;23.77;;;12.00;94.00;;;;;;5072099;28;20107;-74
2021/05/14 02:54:32;;;;;;;30.33;22.27;;;12.10;93.70;;;;;;5072374;28;20036;-74
2021/05/14 02:56:58;;;;;;;30.13;22.07;;;12.00;93.70;;;;;;5072273;28;20504;-74
2021/05/14 02:59:24;;;;;;;30.50;22.43;;;12.10;93.70;;;;;;5073663;28;20032;-73
2021/05/14 03:01:49;;;;;;;30.83;21.97;;;12.00;93.70;;;;;;5055728;28;20040;-74
2021/05/14 03:04:16;;;;;;;31.07;21.63;;;12.10;93.70;;;;;;5072083;28;20091;-74
2021/05/14 03:06:42;;;;;;;27.47;19.87;;;12.00;93.80;;;;;;5072119;28;20491;-74
2021/05/14 03:09:08;;;;;;;30.27;21.90;;;12.00;93.70;;;;;;5073154;28;20029;-74
2021/05/14 03:11:33;;;;;;;30.17;22.27;;;11.90;93.70;;;;;;5072084;28;20029;-79
2021/05/14 03:13:59;;;;;;;29.05;21.42;;;12.00;93.80;;;;;;5072068;28;20074;-78
2021/05/14 03:16:25;;;;;;;29.90;20.67;;;12.00;93.80;;;;;;5055351;28;20028;-79
2021/05/14 03:18:51;;;;;;;29.58;20.73;;;11.90;93.80;;;;;;5054630;28;20032;-79
2021/05/14 03:21:16;;;;;;;27.63;20.30;;;11.90;93.80;;;;;;5071917;28;20391;-79
2021/05/14 03:23:42;;;;;;;29.87;20.93;;;11.90;93.80;;;;;;5073201;28;20484;-80
2021/05/14 03:26:08;;;;;;;29.60;20.70;;;11.90;93.80;;;;;;5071808;28;20043;-78
2021/05/14 03:28:33;;;;;;;29.45;19.15;;;11.90;93.80;;;;;;5073104;28;20464;-79
2021/05/14 03:30:59;;;;;;;30.52;21.42;;;11.90;93.80;;;;;;5071832;28;20024;-79
2021/05/14 03:33:25;;;;;;;31.08;21.40;;;11.90;93.80;;;;;;5073236;28;20417;-79
2021/05/14 03:35:53;;;;;;;31.67;21.33;;;11.80;93.80;;;;;;5071697;28;20025;-79
2021/05/14 03:38:28;;;;;;;33.53;22.30;;;11.90;93.90;;;;;;5073036;28;20051;-79
2021/05/14 03:40:55;;;;;;;42.22;25.05;;;11.80;93.90;;;;;;5073070;28;20070;-79
2021/05/14 03:43:20;;;;;;;34.72;23.67;;;11.90;94.00;;;;;;5071914;28;20036;-79
2021/05/14 03:45:46;;;;;;;34.67;23.88;;;11.90;94.00;;;;;;5073015;28;20041;-79
2021/05/14 03:48:19;;;;;;;32.47;22.77;;;12.00;94.10;;;;;;5071485;28;20382;-80
2021/05/14 03:50:47;;;;;;;31.27;22.75;;;11.90;94.10;;;;;;5071603;28;20021;-79
2021/05/14 03:53:13;;;;;;;34.53;23.40;;;11.90;94.10;;;;;;5071782;28;20028;-79
2021/05/14 03:55:39;;;;;;;35.22;24.58;;;11.90;94.00;;;;;;5054997;28;20036;-79
2021/05/14 03:58:04;;;;;;;34.97;24.47;;;12.00;94.10;;;;;;5071923;28;20545;-79
2021/05/14 04:00:30;;;;;;;31.20;22.67;;;11.90;94.00;;;;;;5052274;28;20074;-79
2021/05/14 04:02:57;;;;;;;34.90;24.33;;;11.90;94.10;;;;;;5052999;28;20060;-79
2021/05/14 04:05:23;;;;;;;31.30;23.02;;;11.90;94.10;;;;;;5070640;28;20464;-79
2021/05/14 04:07:49;;;;;;;34.03;22.67;;;11.90;94.10;;;;;;5071523;28;20017;-80
2021/05/14 04:10:49;;;;;;;32.33;23.10;;;11.90;94.20;;;;;;5071381;28;20025;-79
2021/05/14 04:15:45;;;;;;;;;;;11.80;94.20;;;;;;5071638;28;20054;-80
2021/05/14 04:18:11;;;;;;;26.57;18.37;;;11.90;94.20;;;;;;5071386;28;19904;-80
2021/05/14 04:20:37;;;;;;;28.47;19.33;;;11.90;94.10;;;;;;5072859;28;20027;-79
2021/05/14 04:23:03;;;;;;;29.60;19.43;;;11.90;94.10;;;;;;5054922;28;20115;-80
2021/05/14 04:25:31;;;;;;;28.50;18.93;;;11.90;94.10;;;;;;5038290;28;20436;-80
2021/05/14 04:27:56;;;;;;;29.87;20.77;;;11.90;94.20;;;;;;5071307;28;20391;-80
2021/05/14 04:30:22;;;;;;;26.00;18.77;;;11.90;94.40;;;;;;5074290;28;20037;-79
2021/05/14 04:32:48;;;;;;;29.33;20.30;;;11.90;94.20;;;;;;5076152;28;20041;-74
2021/05/14 04:35:13;;;;;;;29.97;20.60;;;12.00;94.20;;;;;;5076013;28;20081;-75
2021/05/14 04:37:39;;;;;;;32.00;21.07;;;12.00;94.30;;;;;;5058056;28;20086;-75
2021/05/14 04:40:08;;;;;;;30.52;20.48;;;12.00;94.20;;;;;;5057995;28;20123;-75
2021/05/14 04:42:34;;;;;;;29.77;20.57;;;12.00;94.20;;;;;;5057771;28;20032;-75
2021/05/14 04:44:59;;;;;;;28.35;19.65;;;12.10;94.30;;;;;;5074633;28;20525;-75
2021/05/14 04:47:25;;;;;;;28.10;19.30;;;12.20;94.30;;;;;;5074565;28;20053;-75
2021/05/14 04:49:51;;;;;;;31.20;21.38;;;12.20;94.30;;;;;;5074468;28;20029;-76
2021/05/14 04:52:20;;;;;;;31.38;20.95;;;12.30;94.40;;;;;;5057934;28;20024;-76
2021/05/14 04:54:46;;;;;;;33.47;22.42;;;12.10;94.30;;;;;;5075950;28;20028;-76
2021/05/14 04:57:13;;;;;;;30.47;21.57;;;12.20;94.40;;;;;;5075638;28;20391;-76
2021/05/14 04:59:39;;;;;;;36.10;23.10;;;12.30;94.40;;;;;;5074388;28;20545;-76
2021/05/14 05:02:06;;;;;;;35.83;23.95;;;12.20;94.40;;;;;;5074283;28;20029;-75
2021/05/14 05:04:36;;;;;;;37.65;25.20;;;12.30;94.40;;;;;;5041104;28;20036;-74
2021/05/14 05:07:03;;;;;;;35.15;23.65;;;12.30;94.40;;;;;;5072485;28;20039;-75
2021/05/14 05:09:29;;;;;;;37.38;24.25;;;12.40;94.50;;;;;;5073916;28;20028;-75
2021/05/14 05:11:55;;;;;;;38.28;25.67;;;12.40;94.50;;;;;;5072838;28;20460;-76
2021/05/14 05:14:20;;;;;;;41.45;27.20;;;12.40;94.50;;;;;;5072769;28;20179;-75
2021/05/14 05:16:46;;;;;;;37.80;25.58;;;12.50;94.50;;;;;;5057615;28;20028;-75
2021/05/14 05:19:13;;;;;;;40.13;25.98;;;12.40;94.40;;;;;;5073986;28;20071;-75
2021/05/14 05:21:39;;;;;;;37.55;24.52;;;12.50;94.40;;;;;;5073225;28;20069;-75
2021/05/14 05:24:05;;;;;;;36.17;23.75;;;12.50;94.30;;;;;;5073341;28;20032;-75
2021/05/14 05:26:30;;;;;;;32.13;21.33;;;12.50;94.30;;;;;;5055642;28;20035;-75
2021/05/14 05:28:56;;;;;;;32.17;23.05;;;12.50;94.30;;;;;;5037593;28;20029;-75
2021/05/14 05:31:22;;;;;;;32.78;23.77;;;12.50;94.20;;;;;;5045269;28;20067;-76
2021/05/14 05:33:47;;;;;;;35.35;23.05;;;12.50;94.20;;;;;;5064376;28;20461;-75
2021/05/14 05:36:13;;;;;;;30.73;21.73;;;12.50;94.10;;;;;;5044920;28;20087;-75
2021/05/14 05:38:39;;;;;;;29.55;21.27;;;12.50;94.40;;;;;;5048638;28;20032;-76
2021/05/14 05:41:04;;;;;;;32.20;21.13;;;12.40;94.10;;;;;;5060358;28;20036;-75
2021/05/14 05:43:30;;;;;;;31.00;21.80;;;12.40;94.10;;;;;;5064065;28;20119;-75
2021/05/14 05:45:56;;;;;;;31.88;22.20;;;12.40;94.10;;;;;;5034932;28;20054;-75
2021/05/14 05:48:21;;;;;;;31.75;20.67;;;12.40;94.10;;;;;;5068073;28;20120;-74
2021/05/14 05:50:47;;;;;;;31.52;20.02;;;12.40;94.10;;;;;;5062040;28;20048;-75
2021/05/14 05:53:12;;;;;;;28.17;20.00;;;12.40;94.10;;;;;;5049689;28;20043;-75
2021/05/14 05:55:39;;;;;;;28.97;19.73;;;12.40;94.00;;;;;;5065429;28;20400;-75
2021/05/14 05:58:13;;;;;;;31.70;19.30;;;12.40;94.00;;;;;;5045922;28;20029;-74
2021/05/14 06:00:39;;;;;;;28.80;18.65;;;12.40;94.00;;;;;;5063683;28;20557;-75
2021/05/14 06:03:07;;;;;;;27.00;18.25;;;12.40;94.00;;;;;;5073151;28;20051;-75
2021/05/14 06:05:33;;;;;;;28.40;19.87;;;12.40;94.00;;;;;;5073477;28;20419;-75
2021/05/14 06:07:59;;;;;;;29.65;17.98;;;12.40;94.00;;;;;;5073380;28;20025;-74
2021/05/14 06:10:25;;;;;;;30.20;19.03;;;12.40;93.90;;;;;;5056372;28;20472;-74
2021/05/14 06:12:51;;;;;;;30.70;19.55;;;12.50;93.90;;;;;;5074334;28;20021;-75
2021/05/14 06:15:17;;;;;;;29.83;20.47;;;12.40;93.90;;;;;;5072834;28;20475;-79
2021/05/14 06:17:43;;;;;;;32.85;20.48;;;12.40;93.90;;;;;;5074188;28;20027;-80
2021/05/14 06:20:11;;;;;;;31.27;20.77;;;12.40;93.90;;;;;;5056380;28;20040;-79
2021/05/14 06:22:38;;;;;;;30.33;20.70;;;12.40;93.90;;;;;;5072651;28;20021;-76
2021/05/14 06:25:04;;;;;;;27.67;19.15;;;12.40;94.20;;;;;;5073314;28;20413;-75
2021/05/14 06:27:30;;;;;;;32.33;21.17;;;12.40;93.90;;;;;;5039917;28;20035;-81
2021/05/14 06:29:56;;;;;;;30.65;19.05;;;12.50;94.20;;;;;;5072781;28;20025;-79
2021/05/14 06:32:22;;;;;;;27.65;19.05;;;12.50;93.90;;;;;;5056111;28;20555;-80
2021/05/14 06:34:47;;;;;;;30.85;20.30;;;12.50;93.90;;;;;;5074010;28;20036;-76
2021/05/14 06:37:13;;;;;;;35.97;22.75;;;12.40;93.80;;;;;;5073085;28;20047;-76
2021/05/14 06:39:39;;;;;;;38.35;24.85;;;12.40;93.80;;;;;;5072229;28;20468;-73
2021/05/14 06:42:04;;;;;;;33.88;21.75;;;12.40;93.80;;;;;;5053508;28;20025;-74
2021/05/14 06:44:30;;;;;;;31.00;21.40;;;12.40;93.90;;;;;;5061787;28;20499;-76
2021/05/14 06:46:56;;;;;;;29.55;20.45;;;12.50;93.90;;;;;;5049073;28;20492;-75
2021/05/14 06:49:22;;;;;;;32.45;20.52;;;12.50;93.80;;;;;;5056243;28;20039;-75
2021/05/14 06:51:49;;;;;;;33.78;20.38;;;12.50;93.80;;;;;;5035648;28;20112;-76
2021/05/14 06:54:15;;;;;;;31.13;20.75;;;12.60;93.90;;;;;;5052431;28;20033;-75
2021/05/14 06:56:41;;;;;;;28.17;18.38;;;12.40;93.90;;;;;;5052360;28;20099;-75
2021/05/14 06:59:06;;;;;;;27.77;19.00;;;12.60;93.90;;;;;;5053505;28;20055;-75
2021/05/14 07:01:32;;;;;;;29.23;19.17;;;12.70;93.90;;;;;;5052368;28;20028;-75
2021/05/14 07:03:58;;;;;;;27.98;19.85;;;12.70;93.80;;;;;;5052611;28;20366;-75
2021/05/14 07:06:23;;;;;;;24.63;17.73;;;12.80;93.80;;;;;;5052446;28;20025;-75
2021/05/14 07:08:49;;;;;;;26.35;18.65;;;12.80;93.70;;;;;;5054723;28;20491;-74
2021/05/14 07:11:16;;;;;;;23.75;16.95;;;12.90;93.70;;;;;;5058987;28;20025;-75
2021/05/14 07:13:41;;;;;;;27.95;19.33;;;12.90;93.70;;;;;;5052398;28;20118;-75
2021/05/14 07:16:07;;;;;;;26.10;18.95;;;13.00;93.60;;;;;;5051721;28;20025;-75
2021/05/14 07:18:33;;;;;;;28.67;19.38;;;13.00;93.50;;;;;;5051823;28;20062;-78
2021/05/14 07:20:59;;;;;;;25.35;17.65;;;13.00;93.50;;;;;;5057068;28;20025;-79
2021/05/14 07:23:25;;;;;;;27.58;19.25;;;13.10;93.40;;;;;;5053995;28;20033;-78
2021/05/14 07:25:50;;;;;;;29.85;21.48;;;13.20;93.50;;;;;;5058189;28;20034;-78
2021/05/14 07:28:17;;;;;;;28.00;21.05;;;13.20;93.40;;;;;;5072390;28;20028;-78
2021/05/14 07:30:43;;;;;;;28.40;20.95;;;13.20;93.20;;;;;;5073261;28;20025;-79
2021/05/14 07:33:09;;;;;;;28.80;19.88;;;13.20;93.10;;;;;;5073205;28;20537;-79
2021/05/14 07:35:34;;;;;;;30.73;22.23;;;13.20;93.20;;;;;;5071939;28;20032;-79
2021/05/14 07:38:00;;;;;;;33.92;23.08;;;13.30;92.90;;;;;;5071915;28;20060;-78
2021/05/14 07:40:26;;;;;;;36.03;25.17;;;13.30;92.70;;;;;;5072466;28;20059;-78
2021/05/14 07:42:52;;;;;;;32.25;23.13;;;13.40;92.70;;;;;;5069711;28;20108;-78
2021/05/14 07:45:18;;;;;;;33.20;23.80;;;13.40;92.50;;;;;;5070925;28;20598;-78
2021/05/14 07:47:43;;;;;;;28.52;21.50;;;13.40;92.60;;;;;;5071684;28;20552;-81
2021/05/14 07:50:09;;;;;;;29.42;22.25;;;13.50;92.70;;;;;;5071163;28;20029;-80
2021/05/14 07:52:35;;;;;;;29.73;20.92;;;13.50;92.50;;;;;;5071201;28;20017;-79
2021/05/14 07:55:01;;;;;;;29.98;22.45;;;13.50;92.50;;;;;;5071501;28;20380;-79
2021/05/14 07:57:27;;;;;;;31.85;23.27;;;13.60;92.40;;;;;;5071261;28;20028;-76
2021/05/14 07:59:52;;;;;;;34.03;24.02;;;13.60;92.00;;;;;;5054589;28;20020;-74
2021/05/14 08:02:18;;;;;;;30.60;22.63;;;13.60;91.80;;;;;;5037992;28;20027;-73
2021/05/14 08:04:44;;;;;;;33.72;22.10;;;13.60;91.70;;;;;;5074568;28;20529;-74
2021/05/14 08:07:10;;;;;;;29.25;21.23;;;13.60;91.60;;;;;;5075136;28;20107;-74
2021/05/14 08:09:36;;;;;;;26.88;20.02;;;13.70;91.60;;;;;;5074876;28;20029;-74
2021/05/14 08:12:05;;;;;;;27.67;20.00;;;13.70;92.00;;;;;;5074645;28;20067;-75
2021/05/14 08:14:31;;;;;;;29.55;20.33;;;13.70;91.70;;;;;;5075004;28;20078;-75
2021/05/14 08:16:57;;;;;;;23.45;17.35;;;13.80;91.70;;;;;;5076231;28;20028;-75
2021/05/14 08:19:23;;;;;;;30.77;19.95;;;13.80;91.60;;;;;;5076325;28;20055;-75
2021/05/14 08:21:49;;;;;;;32.28;21.00;;;13.90;91.80;;;;;;5074923;28;20024;-74
2021/05/14 08:24:15;;;;;;;29.70;21.40;;;13.90;91.80;;;;;;5075152;28;20089;-75
2021/05/14 08:26:41;;;;;;;36.60;24.27;;;13.90;91.50;;;;;;5075655;28;20040;-74
2021/05/14 08:29:08;;;;;;;31.13;22.95;;;13.90;91.50;;;;;;5058208;28;20024;-78
2021/05/14 08:31:38;;;;;;;35.65;23.70;;;13.90;91.50;;;;;;5075918;28;20028;-78
2021/05/14 08:34:04;;;;;;;34.15;24.30;;;13.90;91.40;;;;;;5074394;28;20017;-79
2021/05/14 08:36:30;;;;;;;35.80;26.30;;;13.90;91.10;;;;;;5064102;28;20032;-79
2021/05/14 08:38:55;;;;;;;34.10;23.35;;;13.80;90.80;;;;;;5038119;28;20032;-79
2021/05/14 08:41:21;;;;;;;33.67;23.10;;;13.80;90.90;;;;;;5056362;28;20078;-79
2021/05/14 08:43:47;;;;;;;35.13;25.50;;;13.80;90.80;;;;;;5054717;28;20392;-79
2021/05/14 08:46:17;;;;;;;31.77;23.40;;;13.80;90.80;;;;;;5054625;28;20037;-79
2021/05/14 08:48:43;;;;;;;32.03;22.60;;;13.80;90.70;;;;;;5055587;28;20325;-79
2021/05/14 08:51:11;;;;;;;35.58;23.58;;;13.90;90.70;;;;;;5038094;28;20021;-79
2021/05/14 08:53:39;;;;;;;29.63;20.98;;;14.00;90.40;;;;;;5072705;28;20032;-79
2021/05/14 08:56:04;;;;;;;29.52;21.23;;;14.20;90.40;;;;;;5057534;28;20036;-78
2021/05/14 08:58:30;;;;;;;31.35;20.92;;;14.30;90.00;;;;;;5057794;28;20029;-79
2021/05/14 09:00:56;;;;;;;32.67;21.88;;;14.40;89.80;;;;;;5041432;28;20079;-78
2021/05/14 09:03:22;;;;;;;30.15;21.63;;;14.50;88.90;;;;;;5075599;28;20024;-79
2021/05/14 09:05:48;;;;;;;27.30;20.00;;;14.50;88.40;;;;;;5075419;28;20032;-79
2021/05/14 09:08:25;;;;;;;25.90;20.25;;;14.60;88.40;;;;;;5074224;28;20036;-79
2021/05/14 09:10:51;;;;;;;23.60;17.48;;;14.70;87.90;;;;;;5075182;28;20020;-79
2021/05/14 09:13:17;;;;;;;25.75;19.52;;;14.70;87.60;;;;;;5075122;28;20040;-79
2021/05/14 09:15:44;;;;;;;24.05;19.08;;;14.80;87.10;;;;;;5072801;28;20013;-80
2021/05/14 09:18:23;;;;;;;27.05;19.98;;;14.80;86.30;;;;;;5057575;28;20028;-79
2021/05/14 09:21:06;;;;;;;26.17;19.73;;;14.70;86.30;;;;;;5057498;28;20488;-79
2021/05/14 09:23:37;;;;;;;27.40;19.98;;;14.70;86.00;;;;;;5075005;28;20362;-80
2021/05/14 09:26:03;;;;;;;26.80;20.30;;;14.70;85.90;;;;;;5074783;28;20111;-80
2021/05/14 09:28:34;;;;;;;28.52;21.42;;;14.80;86.00;;;;;;5069084;28;20377;-81
2021/05/14 09:31:01;;;;;;;28.90;23.10;;;14.80;85.50;;;;;;5058771;28;20112;-81
2021/05/14 09:33:28;;;;;;;26.20;20.77;;;14.80;84.40;;;;;;5037578;28;20414;-79
2021/05/14 09:35:58;;;;;;;27.75;20.58;;;14.80;84.40;;;;;;5053617;28;20032;-80
2021/05/14 09:38:23;;;;;;;29.17;21.52;;;14.80;84.50;;;;;;5037166;28;20025;-80
2021/05/14 09:40:49;;;;;;;27.60;20.52;;;14.80;84.50;;;;;;5068408;28;20040;-79
2021/05/14 09:43:15;;;;;;;28.17;20.02;;;14.80;84.10;;;;;;5073542;28;20090;-79
2021/05/14 09:45:40;;;;;;;30.08;20.35;;;14.90;83.70;;;;;;5073345;28;20044;-80
2021/05/14 09:48:26;;;;;;;26.70;20.15;;;14.90;83.30;;;;;;5073137;28;20055;-79
2021/05/14 09:50:58;;;;;;;27.27;19.48;;;15.00;83.40;;;;;;5059779;28;20040;-79
2021/05/14 09:53:26;;;;;;;30.98;20.90;;;15.00;83.00;;;;;;5037437;28;20125;-79
2021/05/14 09:56:01;;;;;;;30.75;21.38;;;15.00;82.80;;;;;;5038902;28;20052;-79
2021/05/14 09:58:30;;;;;;;26.13;20.40;;;15.00;82.70;;;;;;5055272;28;20098;-79
2021/05/14 10:00:56;;;;;;;28.33;21.70;;;15.10;82.70;;;;;;5064556;28;20036;-79
2021/05/14 10:03:25;;;;;;;30.52;20.25;;;15.10;83.00;;;;;;5053242;28;20068;-78
2021/05/14 10:05:55;;;;;;;30.73;21.13;;;15.20;81.90;;;;;;5064977;28;20025;-79
2021/05/14 10:08:23;;;;;;;26.50;19.83;;;15.30;81.80;;;;;;5074396;28;20074;-78
2021/05/14 10:10:50;;;;;;;26.92;18.92;;;15.30;81.50;;;;;;5073908;28;20028;-80
2021/05/14 10:13:16;;;;;;;29.25;20.92;;;15.40;81.70;;;;;;5064398;28;20031;-80
2021/05/14 10:15:45;;;;;;;30.05;21.63;;;15.50;81.10;;;;;;5066628;28;20041;-78
2021/05/14 10:18:17;;;;;;;28.13;21.73;;;15.60;80.90;;;;;;5068761;28;20060;-79
2021/05/14 10:20:43;;;;;;;28.77;21.58;;;15.80;80.00;;;;;;5064493;28;20081;-80
2021/05/14 10:23:10;;;;;;;30.30;23.35;;;15.90;79.30;;;;;;5061753;28;20035;-82
2021/05/14 10:25:42;;;;;;;36.47;25.75;;;16.00;77.90;;;;;;5063017;28;20477;-83
2021/05/14 10:28:10;;;;;;;28.73;21.08;;;16.00;76.50;;;;;;5059518;28;20476;-79
2021/05/14 10:30:36;;;;;;;26.48;20.90;;;16.20;77.00;;;;;;5041555;28;20029;-80
2021/05/14 10:33:03;;;;;;;26.08;20.23;;;16.60;75.90;;;;;;5041254;28;20032;-80
2021/05/14 10:35:30;;;;;;;25.17;18.83;;;16.70;74.40;;;;;;5047448;28;20025;-78
2021/05/14 10:38:04;;;;;;;22.73;18.05;;;17.00;73.70;;;;;;5052568;28;20033;-78
2021/05/14 10:40:33;;;;;;;22.02;17.75;;;17.30;72.80;;;;;;5059733;28;20024;-79
2021/05/14 10:43:19;;;;;;;18.35;13.98;;;17.60;72.70;;;;;;5065410;28;20063;-79
2021/05/14 10:45:48;;;;;;;17.42;13.68;;;18.10;71.70;;;;;;5067970;28;20480;-79
2021/05/14 10:48:23;;;;;;;15.15;12.18;;;18.40;71.70;;;;;;5054149;28;20029;-80
2021/05/14 10:50:56;;;;;;;17.00;11.93;;;18.60;72.10;;;;;;5072263;28;20527;-82
2021/05/14 10:53:32;;;;;;;14.73;11.40;;;18.80;71.90;;;;;;5072338;28;20070;-83
2021/05/14 10:56:10;;;;;;;13.35;10.00;;;18.90;71.80;;;;;;5073578;28;20024;-83
2021/05/14 10:58:47;;;;;;;14.45;11.13;;;19.00;71.10;;;;;;5072141;28;20029;-81
2021/05/14 11:01:31;;;;;;;12.93;9.85;;;19.20;70.60;;;;;;5073220;28;20091;-87
2021/05/14 11:03:58;;;;;;;13.45;9.77;;;19.40;69.90;;;;;;5072109;28;20028;-80
2021/05/14 11:06:25;;;;;;;13.43;9.80;;;19.50;69.70;;;;;;5073280;28;20046;-81
2021/05/14 11:08:57;;;;;;;10.73;8.77;;;19.70;68.80;;;;;;5072010;28;20037;-75
2021/05/14 11:11:23;;;;;;;12.88;8.98;;;19.80;68.00;;;;;;5071708;28;20052;-74
2021/05/14 11:13:49;;;;;;;11.68;8.93;;;19.90;67.50;;;;;;5038540;28;20388;-75
2021/05/14 11:16:43;;;;;;;9.52;7.65;;;20.10;66.80;;;;;;5055354;28;20040;-74
2021/05/14 11:19:28;;;;;;;9.45;6.72;;;20.20;65.40;;;;;;5071904;28;20027;-74
2021/05/14 11:22:12;;;;;;;9.13;6.70;;;20.40;65.10;;;;;;5073124;28;20028;-74
2021/05/14 11:24:38;;;;;;;;;;;20.50;64.60;;;;;;5072285;28;20039;-75
2021/05/14 11:27:04;;;;;;;7.93;5.63;;;20.70;64.40;;;;;;5073212;28;19957;-74
2021/05/14 11:29:32;;;;;;;8.68;5.35;;;20.90;64.60;;;;;;5071822;28;20029;-76
2021/05/14 11:32:15;;;;;;;7.65;5.50;;;21.00;63.30;;;;;;5071811;28;20028;-78
2021/05/14 11:35:17;;;;;;;7.28;4.88;;;21.20;61.20;;;;;;5071762;28;20036;-74
2021/05/14 11:37:54;;;;;;;7.53;4.78;;;21.40;59.90;;;;;;5068181;28;20032;-77
2021/05/14 11:40:31;;;;;;;8.38;4.68;;;21.60;60.40;;;;;;5058629;28;20484;-75
2021/05/14 11:43:02;;;;;;;7.07;4.93;;;21.80;59.30;;;;;;5075831;28;20091;-76
2021/05/14 11:45:32;;;;;;;6.13;3.92;;;22.00;58.80;;;;;;5077050;28;20539;-76
2021/05/14 11:48:00;;;;;;;6.47;3.72;;;22.10;58.20;;;;;;5063096;28;20053;-79
2021/05/14 11:50:25;;;;;;;6.43;3.50;;;22.30;57.90;;;;;;5057246;28;20024;-76
2021/05/14 11:52:52;;;;;;;4.68;2.90;;;22.40;57.50;;;;;;5070295;28;20033;-75
2021/05/14 11:55:18;;;;;;;6.53;3.60;;;22.60;56.90;;;;;;5048624;28;20051;-75
2021/05/14 11:57:52;;;;;;;4.85;3.33;;;22.70;56.30;;;;;;5059626;28;20024;-73
2021/05/14 12:00:44;;;;;;;4.95;3.22;;;22.80;55.60;;;;;;5060085;28;20021;-73
2021/05/14 12:03:17;;;;;;;7.53;3.92;;;22.70;54.90;;;;;;5070621;28;20037;-75
2021/05/14 12:05:44;;;;;;;3.83;2.83;;;22.70;54.50;;;;;;5068069;28;20021;-74
2021/05/14 12:08:30;;;;;;;4.60;3.08;;;22.60;54.30;;;;;;5075214;28;20374;-75
2021/05/14 12:11:01;;;;;;;5.75;3.13;;;22.60;54.10;;;;;;5073442;28;20063;-82
2021/05/14 12:13:31;;;;;;;4.95;3.22;;;22.50;53.50;;;;;;5069698;28;20024;-76
2021/05/14 12:15:57;;;;;;;4.22;2.28;;;22.40;53.30;;;;;;5054591;28;20043;-76
2021/05/14 12:18:23;;;;;;;4.25;2.50;;;22.50;53.40;;;;;;5056374;28;20056;-75
2021/05/14 12:20:49;;;;;;;4.10;2.53;;;22.70;53.20;;;;;;5060254;28;20110;-74
2021/05/14 12:23:15;;;;;;;4.03;2.40;;;23.00;52.80;;;;;;5064515;28;20036;-76
2021/05/14 12:25:47;;;;;;;3.50;2.35;;;23.30;52.20;;;;;;5069125;28;20106;-75
2021/05/14 12:28:33;;;;;;;4.13;2.70;;;23.70;51.40;;;;;;5056479;28;20029;-76
2021/05/14 12:31:01;;;;;;;3.97;2.10;;;23.80;50.30;;;;;;5054834;28;20009;-75
2021/05/14 12:33:28;;;;;;;3.38;2.28;;;23.90;50.70;;;;;;5065858;28;20597;-76
2021/05/14 12:36:06;;;;;;;3.65;2.47;;;24.10;50.40;;;;;;5072671;28;20059;-77